Airfield :
LOGIN :

Register | Disclaimer

   EN    FR    IT 

 










Legend :    VFR   Marginal VFR   IFR   Intensive IFR   Very Intensive IFR
Visi :
Ceiling :
>= 8 km
>= 3000ft
5 to 8 km
1000 to 3000 ft
1500m to 5 km
500 to 1000 ft
800 to 1500m
200 to 500 ft
< 800m
< 200 ft
Symbols :   Thunderstorms  Fog  Heavy snow  Heavy precipitations  Wind > 20 kt
SIGMETs :     Misc.  Thunderstorms  Icing  Turbulence  Mountain Waves  Volcanic Ashes






- Airport Elevation : 102 ft


LTBD - Ç?ld?r

CURRENT METAR :
  • 162150Z 24004KT CAVOK 21/18 Q1010

EXPIRED METARs :
  • 162050Z 18004KT CAVOK 23/17 Q1010
  • 161950Z 00000KT CAVOK 23/17 Q1010

TAF TAF LTBD
Valid from the 16 at 15:00 until the 17 at 00:00 UTC


161340Z 1615/1624 26013KT 9999 FEW040
BECMG 1615/1618 CAVOK
BECMG 1618/1621 VRB02KT



MET'MAP, your aeronautical weather chart ! - Copyright ORBIFLY December 2007 - Disclaimer

ORBIFLY MET'MAP TEAM :

Programming & Development : Alexandra Zaïnal
Original concept : Baudouin d'Aumeries
Technical & hardware support : Manuel Goepfert
Assistance : Marc-Olivier Méhu




SOURCES & CREDITS :

   NOAA